Time;durP1;ratioP1;P1;durP2;ratioP2;P2;SDS_P1;SDS_P2;PMS_P1;PMS_P2;Temp;Humidity;BMP_temperature;BMP_pressure;BME280_temperature;BME280_humidity;BME280_pressure;Samples;Min_cycle;Max_cycle;Signal;HPM_P1;HPM_P2
2023/04/28 08:27:04;;;;;;;;;6.33;5.67;;;;;;;;5122510;27;1352877;-65
2023/04/28 08:29:30;;;;;;;;;7.25;6.50;;;;;;;;5144682;27;8810;-66
2023/04/28 08:31:55;;;;;;;;;6.50;6.50;;;;;;;;5127271;22;8893;-64
2023/04/28 08:34:21;;;;;;;;;5.00;5.00;;;;;;;;5086867;28;8814;-64
2023/04/28 08:36:46;;;;;;;;;8.33;6.00;;;;;;;;5087184;28;9513;-63
2023/04/28 08:39:11;;;;;;;;;5.00;5.00;;;;;;;;5084138;28;8834;-64
2023/04/28 08:41:38;;;;;;;;;6.67;4.67;;;;;;;;5086774;28;8794;-63
2023/04/28 08:44:12;;;;;;;;;4.75;4.00;;;;;;;;5085639;28;9580;-63
2023/04/28 08:46:42;;;;;;;;;6.25;6.00;;;;;;;;5086906;28;8838;-63
2023/04/28 08:49:11;;;;;;;;;7.75;5.00;;;;;;;;5084119;28;8826;-64
2023/04/28 08:51:43;;;;;;;;;4.00;4.00;;;;;;;;5086678;28;8883;-64
2023/04/28 08:54:10;;;;;;;;;6.25;6.25;;;;;;;;5085995;28;8818;-64
2023/04/28 08:56:35;;;;;;;;;4.25;4.25;;;;;;;;5086389;28;8811;-63
2023/04/28 08:59:02;;;;;;;;;6.33;5.00;;;;;;;;5083789;28;8806;-64
2023/04/28 09:01:28;;;;;;;;;5.00;5.00;;;;;;;;5086552;28;8806;-65
2023/04/28 09:03:53;;;;;;;;;8.00;6.00;;;;;;;;5086555;28;8806;-64
2023/04/28 09:06:20;;;;;;;;;6.33;5.00;;;;;;;;5086398;28;9541;-64
2023/04/28 09:08:46;;;;;;;;;5.00;5.00;;;;;;;;5076651;28;8825;-64
2023/04/28 09:11:12;;;;;;;;;4.67;4.67;;;;;;;;5085044;28;9125;-64
2023/04/28 09:13:38;;;;;;;;;3.33;3.33;;;;;;;;5086696;28;8802;-64
2023/04/28 09:16:04;;;;;;;;;4.00;4.00;;;;;;;;5085025;28;8925;-63
2023/04/28 09:18:32;;;;;;;;;4.00;4.00;;;;;;;;5079206;28;8909;-64
2023/04/28 09:21:07;;;;;;;;;6.00;3.75;;;;;;;;5066123;28;8790;-64
2023/04/28 09:23:32;;;;;;;;;5.00;3.00;;;;;;;;5065932;28;8789;-64
2023/04/28 09:25:59;;;;;;;;;5.67;3.00;;;;;;;;5065461;28;8836;-65
2023/04/28 09:28:24;;;;;;;;;3.75;3.75;;;;;;;;5064137;28;8825;-64
2023/04/28 09:30:50;;;;;;;;;3.67;3.67;;;;;;;;5065809;28;9505;-64
2023/04/28 09:33:15;;;;;;;;;2.33;2.33;;;;;;;;5065907;28;8959;-64
2023/04/28 09:35:42;;;;;;;;;4.00;4.00;;;;;;;;5065429;28;8797;-64
2023/04/28 09:38:07;;;;;;;;;4.00;2.50;;;;;;;;5052124;28;8781;-64
2023/04/28 09:40:33;;;;;;;;;6.00;4.67;;;;;;;;5070540;28;8853;-63
2023/04/28 09:42:58;;;;;;;;;4.67;4.00;;;;;;;;5070785;28;9820;-62
2023/04/28 09:45:25;;;;;;;;;5.00;4.00;;;;;;;;5072209;28;8846;-62
2023/04/28 09:47:51;;;;;;;;;4.67;4.00;;;;;;;;5071674;28;8995;-63
2023/04/28 09:50:17;;;;;;;;;4.67;4.67;;;;;;;;5051087;28;9333;-64
2023/04/28 09:52:55;;;;;;;;;4.67;4.67;;;;;;;;5051913;28;8916;-64
2023/04/28 09:55:22;;;;;;;;;10.50;7.75;;;;;;;;5050840;28;8825;-64
2023/04/28 09:57:48;;;;;;;;;6.67;5.00;;;;;;;;5070949;28;9464;-65
2023/04/28 10:00:15;;;;;;;;;7.50;6.50;;;;;;;;5051741;28;9200;-65
2023/04/28 10:02:40;;;;;;;;;4.67;3.33;;;;;;;;5051909;28;9336;-68
2023/04/28 10:05:08;;;;;;;;;6.00;6.00;;;;;;;;5051766;28;10304;-63
2023/04/28 10:07:34;;;;;;;;;5.00;4.67;;;;;;;;5052111;28;8813;-64
2023/04/28 10:10:00;;;;;;;;;5.67;5.67;;;;;;;;5058576;28;9229;-63
2023/04/28 10:12:26;;;;;;;;;7.00;6.00;;;;;;;;5051615;28;9223;-64
2023/04/28 10:14:54;;;;;;;;;5.00;5.00;;;;;;;;5050891;28;8825;-66
2023/04/28 10:17:24;;;;;;;;;6.00;4.00;;;;;;;;5051861;28;8808;-67
2023/04/28 10:19:51;;;;;;;;;5.00;5.00;;;;;;;;5065641;28;9300;-65
2023/04/28 10:22:21;;;;;;;;;7.75;5.00;;;;;;;;5071493;28;9484;-66
2023/04/28 10:25:06;;;;;;;;;6.00;5.25;;;;;;;;5071712;28;9401;-65
2023/04/28 10:27:33;;;;;;;;;4.50;3.25;;;;;;;;5050741;28;9601;-65
2023/04/28 10:30:11;;;;;;;;;3.25;3.00;;;;;;;;5054549;28;9419;-66
2023/04/28 10:32:36;;;;;;;;;6.25;4.00;;;;;;;;5051264;28;10344;-63
2023/04/28 10:35:36;;;;;;;;;4.00;4.00;;;;;;;;5051494;28;9595;-63
2023/04/28 10:38:07;;;;;;;;;5.00;5.00;;;;;;;;4969316;28;9639;-63
2023/04/28 10:40:37;;;;;;;;;4.50;3.00;;;;;;;;4984544;28;9608;-62
2023/04/28 10:43:03;;;;;;;;;5.25;5.00;;;;;;;;4989429;28;9560;-63
2023/04/28 10:45:47;;;;;;;;;3.75;2.50;;;;;;;;4989395;28;9620;-63
2023/04/28 10:48:12;;;;;;;;;2.75;2.75;;;;;;;;4988460;28;9451;-65
2023/04/28 10:50:55;;;;;;;;;2.00;2.00;;;;;;;;4989312;28;9420;-66
2023/04/28 10:53:21;;;;;;;;;7.00;5.00;;;;;;;;4989305;28;8793;-64
2023/04/28 10:56:04;;;;;;;;;4.00;3.00;;;;;;;;4988895;28;9662;-64
2023/04/28 10:58:30;;;;;;;;;3.00;3.00;;;;;;;;4989795;28;8883;-64
2023/04/28 11:01:16;;;;;;;;;6.00;3.75;;;;;;;;4989026;28;10411;-64
2023/04/28 11:03:50;;;;;;;;;1.25;1.00;;;;;;;;4988995;28;9733;-65
2023/04/28 11:06:45;;;;;;;;;3.00;2.25;;;;;;;;4988520;28;9710;-65
2023/04/28 11:09:13;;;;;;;;;5.00;4.75;;;;;;;;4972790;28;10485;-64
2023/04/28 11:11:59;;;;;;;;;5.00;5.00;;;;;;;;4988451;28;9774;-64
2023/04/28 11:14:24;;;;;;;;;5.00;5.00;;;;;;;;5043690;28;9717;-65
2023/04/28 11:16:51;;;;;;;;;7.00;5.00;;;;;;;;5055801;28;9868;-64
2023/04/28 11:19:36;;;;;;;;;3.00;3.00;;;;;;;;5050707;28;8808;-64
2023/04/28 11:22:03;;;;;;;;;4.25;3.00;;;;;;;;5064555;28;9730;-68
2023/04/28 11:24:29;;;;;;;;;4.75;3.50;;;;;;;;5050530;28;9559;-64
2023/04/28 11:26:58;;;;;;;;;5.25;4.00;;;;;;;;5047337;28;9783;-65
2023/04/28 11:29:30;;;;;;;;;3.00;3.00;;;;;;;;5048242;28;9750;-66
2023/04/28 11:31:56;;;;;;;;;2.50;2.25;;;;;;;;5047744;28;9747;-63
2023/04/28 11:34:22;;;;;;;;;4.00;3.50;;;;;;;;5048254;28;9675;-63
2023/04/28 11:36:47;;;;;;;;;8.50;4.50;;;;;;;;5054496;28;8826;-64
2023/04/28 11:39:13;;;;;;;;;5.25;5.00;;;;;;;;5067866;28;9645;-64
2023/04/28 11:41:39;;;;;;;;;3.75;3.75;;;;;;;;5066920;28;8818;-65
2023/04/28 11:44:10;;;;;;;;;5.25;5.25;;;;;;;;5069952;28;8803;-64
2023/04/28 11:46:43;;;;;;;;;8.25;4.75;;;;;;;;5048565;28;10733;-64
2023/04/28 11:49:08;;;;;;;;;2.50;2.50;;;;;;;;5049921;28;9970;-65
2023/04/28 11:51:35;;;;;;;;;7.00;5.00;;;;;;;;5048179;28;9824;-65
2023/04/28 11:54:01;;;;;;;;;4.25;4.25;;;;;;;;5049569;28;8823;-65
2023/04/28 11:56:27;;;;;;;;;8.00;4.50;;;;;;;;5047847;28;9882;-65
2023/04/28 11:58:59;;;;;;;;;5.00;4.00;;;;;;;;5049910;28;8831;-64
2023/04/28 12:01:24;;;;;;;;;4.00;2.25;;;;;;;;5049250;28;11630;-64
2023/04/28 12:03:50;;;;;;;;;5.50;4.00;;;;;;;;5049677;28;9664;-66
2023/04/28 12:06:18;;;;;;;;;3.25;3.00;;;;;;;;5047686;28;8853;-66
2023/04/28 12:08:43;;;;;;;;;4.00;4.00;;;;;;;;5049372;28;8813;-65
2023/04/28 12:11:12;;;;;;;;;4.00;4.00;;;;;;;;5068081;28;9674;-65
2023/04/28 12:13:38;;;;;;;;;3.00;3.00;;;;;;;;5069702;28;8794;-66
2023/04/28 12:16:05;;;;;;;;;4.25;4.00;;;;;;;;5069366;28;9630;-67
2023/04/28 12:18:33;;;;;;;;;4.25;2.25;;;;;;;;5069615;28;9582;-65
2023/04/28 12:20:59;;;;;;;;;4.00;2.00;;;;;;;;5069943;28;9630;-64
2023/04/28 12:23:34;;;;;;;;;4.50;4.00;;;;;;;;5069509;28;10594;-64
2023/04/28 12:26:00;;;;;;;;;8.00;3.00;;;;;;;;5069159;28;9843;-65
2023/04/28 12:28:39;;;;;;;;;5.00;3.00;;;;;;;;5069403;28;9661;-65
2023/04/28 12:31:05;;;;;;;;;5.00;4.00;;;;;;;;5069547;28;9650;-64
2023/04/28 12:33:36;;;;;;;;;3.00;3.00;;;;;;;;5068344;28;9769;-64
2023/04/28 12:36:02;;;;;;;;;4.75;3.00;;;;;;;;5069425;28;9726;-64
2023/04/28 12:38:27;;;;;;;;;2.25;2.25;;;;;;;;5069459;28;9815;-65
2023/04/28 12:40:52;;;;;;;;;3.00;3.00;;;;;;;;5069403;28;8826;-64
2023/04/28 12:43:18;;;;;;;;;3.50;3.00;;;;;;;;5068984;28;8825;-64
2023/04/28 12:45:43;;;;;;;;;3.00;3.00;;;;;;;;5069510;28;8823;-64
2023/04/28 12:48:09;;;;;;;;;4.50;3.50;;;;;;;;5068898;28;8830;-65
2023/04/28 12:50:34;;;;;;;;;4.00;4.00;;;;;;;;5069512;28;8806;-63
2023/04/28 12:52:59;;;;;;;;;5.00;3.25;;;;;;;;5069243;28;8883;-63
2023/04/28 12:55:25;;;;;;;;;3.75;3.75;;;;;;;;5069230;28;8799;-64
2023/04/28 12:57:51;;;;;;;;;5.00;4.25;;;;;;;;5069168;28;9819;-66
2023/04/28 13:00:20;;;;;;;;;4.75;4.75;;;;;;;;5069119;28;9887;-66
2023/04/28 13:02:45;;;;;;;;;4.00;4.00;;;;;;;;5068895;28;8913;-64
2023/04/28 13:05:11;;;;;;;;;2.25;2.25;;;;;;;;5069269;28;10117;-66
2023/04/28 13:07:36;;;;;;;;;3.00;3.00;;;;;;;;5069147;28;8803;-67
2023/04/28 13:10:01;;;;;;;;;2.00;2.00;;;;;;;;5068895;28;8794;-68
2023/04/28 13:12:26;;;;;;;;;4.25;3.00;;;;;;;;5070299;28;8821;-67
2023/04/28 13:14:52;;;;;;;;;2.00;0.00;;;;;;;;5072951;28;8803;-68
2023/04/28 13:17:17;;;;;;;;;3.00;3.00;;;;;;;;5069796;28;8830;-67
2023/04/28 13:19:42;;;;;;;;;3.75;3.75;;;;;;;;5061449;28;8835;-67
2023/04/28 13:22:08;;;;;;;;;4.25;4.00;;;;;;;;5063056;28;8838;-67
2023/04/28 13:24:34;;;;;;;;;4.00;4.00;;;;;;;;5067478;28;8814;-67
2023/04/28 13:27:01;;;;;;;;;8.00;4.75;;;;;;;;5072562;28;8818;-65
2023/04/28 13:29:26;;;;;;;;;5.00;3.25;;;;;;;;5070315;28;9858;-65
2023/04/28 13:31:51;;;;;;;;;4.25;4.00;;;;;;;;5061548;28;9837;-66
2023/04/28 13:34:17;;;;;;;;;4.00;4.00;;;;;;;;5067372;28;8827;-65
2023/04/28 13:36:43;;;;;;;;;8.00;5.00;;;;;;;;5064492;28;8842;-65
2023/04/28 13:39:13;;;;;;;;;5.00;5.00;;;;;;;;5061859;28;9816;-66
2023/04/28 13:41:38;;;;;;;;;4.00;3.00;;;;;;;;4979403;28;10179;-67
2023/04/28 13:44:03;;;;;;;;;3.00;3.00;;;;;;;;5026040;28;9932;-67
2023/04/28 13:46:29;;;;;;;;;4.00;4.00;;;;;;;;5022914;28;8831;-66
2023/04/28 13:48:54;;;;;;;;;3.75;3.75;;;;;;;;5020293;28;8779;-64
2023/04/28 13:51:20;;;;;;;;;6.25;5.00;;;;;;;;5027385;28;8882;-67
2023/04/28 13:53:45;;;;;;;;;4.25;3.25;;;;;;;;5032509;28;8800;-67
2023/04/28 13:56:11;;;;;;;;;11.25;9.00;;;;;;;;5031884;28;8799;-68
2023/04/28 13:58:36;;;;;;;;;11.00;8.75;;;;;;;;5031943;28;8772;-67
2023/04/28 14:01:03;;;;;;;;;4.00;3.25;;;;;;;;5032127;28;8984;-66
2023/04/28 14:03:28;;;;;;;;;6.50;4.00;;;;;;;;5031894;28;8784;-65
2023/04/28 14:05:54;;;;;;;;;8.00;4.50;;;;;;;;5031686;28;10094;-66
2023/04/28 14:08:20;;;;;;;;;3.75;3.00;;;;;;;;5031965;28;8788;-65
2023/04/28 14:10:46;;;;;;;;;3.00;3.00;;;;;;;;5024593;28;10096;-65
2023/04/28 14:13:11;;;;;;;;;1.75;1.50;;;;;;;;5011867;28;8811;-66
2023/04/28 14:15:37;;;;;;;;;7.50;7.50;;;;;;;;5012146;28;9901;-67
2023/04/28 14:18:02;;;;;;;;;3.50;2.75;;;;;;;;5026013;28;8951;-65
2023/04/28 14:20:28;;;;;;;;;4.25;4.25;;;;;;;;5031437;28;8812;-65
2023/04/28 14:22:53;;;;;;;;;4.25;4.25;;;;;;;;5031477;28;8828;-65
2023/04/28 14:25:19;;;;;;;;;5.00;4.25;;;;;;;;5023168;28;8935;-65
2023/04/28 14:27:44;;;;;;;;;5.25;5.25;;;;;;;;5012359;28;8821;-65
2023/04/28 14:30:10;;;;;;;;;4.00;4.00;;;;;;;;5013488;28;8802;-64
2023/04/28 14:32:37;;;;;;;;;8.50;8.50;;;;;;;;5014100;28;8831;-67
2023/04/28 14:35:04;;;;;;;;;7.00;3.50;;;;;;;;5029330;28;9527;-67
2023/04/28 14:37:30;;;;;;;;;4.75;4.25;;;;;;;;5016909;28;9942;-66
2023/04/28 14:39:55;;;;;;;;;4.00;3.75;;;;;;;;5019489;28;9874;-68
2023/04/28 14:42:21;;;;;;;;;3.00;3.00;;;;;;;;5017347;28;9027;-65
2023/04/28 14:44:47;;;;;;;;;8.50;6.00;;;;;;;;5011656;28;8794;-66
2023/04/28 14:47:12;;;;;;;;;4.00;2.25;;;;;;;;5016655;28;10719;-63
2023/04/28 14:49:37;;;;;;;;;4.00;3.25;;;;;;;;5023730;28;8903;-63
2023/04/28 14:52:03;;;;;;;;;4.50;3.50;;;;;;;;5027774;28;8831;-62
2023/04/28 14:54:28;;;;;;;;;4.00;2.00;;;;;;;;5031009;28;8888;-65
2023/04/28 14:56:53;;;;;;;;;2.00;2.00;;;;;;;;5030782;28;9925;-65
2023/04/28 14:59:19;;;;;;;;;3.25;3.25;;;;;;;;5030635;28;8807;-66
2023/04/28 15:01:45;;;;;;;;;4.50;4.50;;;;;;;;5019714;28;8819;-66
2023/04/28 15:04:12;;;;;;;;;5.00;4.00;;;;;;;;5013787;28;8847;-67
2023/04/28 15:06:38;;;;;;;;;4.00;3.00;;;;;;;;5012777;28;8838;-67
2023/04/28 15:09:03;;;;;;;;;8.25;7.50;;;;;;;;5012245;28;9831;-68
2023/04/28 15:11:28;;;;;;;;;4.25;4.25;;;;;;;;5022197;28;8846;-68
2023/04/28 15:13:54;;;;;;;;;4.75;4.00;;;;;;;;5029404;28;8804;-67
2023/04/28 15:16:19;;;;;;;;;6.75;3.00;;;;;;;;5019256;28;8852;-67
2023/04/28 15:18:45;;;;;;;;;5.75;5.75;;;;;;;;5029442;28;8807;-66
2023/04/28 15:21:10;;;;;;;;;4.75;4.00;;;;;;;;5029754;28;9639;-66
2023/04/28 15:23:35;;;;;;;;;6.00;4.00;;;;;;;;5010131;28;8802;-67
2023/04/28 15:26:04;;;;;;;;;8.25;6.50;;;;;;;;5010917;28;8829;-70
2023/04/28 15:28:29;;;;;;;;;9.75;5.00;;;;;;;;5010690;28;8819;-68
2023/04/28 15:30:55;;;;;;;;;4.00;4.00;;;;;;;;5012786;28;10915;-67
2023/04/28 15:33:21;;;;;;;;;4.00;3.00;;;;;;;;5022040;28;9608;-65
2023/04/28 15:35:47;;;;;;;;;5.00;3.00;;;;;;;;5028173;28;8832;-67
2023/04/28 15:38:12;;;;;;;;;3.25;3.25;;;;;;;;5029798;28;8937;-68
2023/04/28 15:40:38;;;;;;;;;3.75;3.00;;;;;;;;5030347;28;8818;-68
2023/04/28 15:43:03;;;;;;;;;8.50;5.00;;;;;;;;5027263;28;8828;-67
2023/04/28 15:45:28;;;;;;;;;4.00;4.00;;;;;;;;5030081;28;9864;-68
2023/04/28 15:47:54;;;;;;;;;5.25;3.00;;;;;;;;5028856;28;8800;-69
2023/04/28 15:50:20;;;;;;;;;3.25;3.25;;;;;;;;5029477;28;8838;-68
2023/04/28 15:52:45;;;;;;;;;7.25;5.25;;;;;;;;5015431;28;8822;-66
2023/04/28 15:55:12;;;;;;;;;3.00;3.00;;;;;;;;5010386;28;10020;-67
2023/04/28 15:57:37;;;;;;;;;3.75;2.00;;;;;;;;5028546;28;9872;-67
2023/04/28 16:00:05;;;;;;;;;2.00;2.00;;;;;;;;5029701;28;9554;-66
2023/04/28 16:02:31;;;;;;;;;7.50;5.00;;;;;;;;5027227;28;8828;-67
2023/04/28 16:04:58;;;;;;;;;6.50;5.75;;;;;;;;5029997;28;9812;-68
2023/04/28 16:07:23;;;;;;;;;5.00;3.75;;;;;;;;5029624;28;8835;-67
2023/04/28 16:09:49;;;;;;;;;2.75;2.00;;;;;;;;5029419;28;10007;-68
2023/04/28 16:12:14;;;;;;;;;4.25;3.75;;;;;;;;5027702;28;8854;-67
2023/04/28 16:14:39;;;;;;;;;6.00;3.00;;;;;;;;5029907;28;8812;-68
2023/04/28 16:17:04;;;;;;;;;3.75;3.00;;;;;;;;5029715;28;8820;-69
2023/04/28 16:19:30;;;;;;;;;3.50;3.00;;;;;;;;5028013;28;8827;-67
2023/04/28 16:21:55;;;;;;;;;6.50;3.75;;;;;;;;5027305;28;8940;-69
2023/04/28 16:24:21;;;;;;;;;5.25;5.25;;;;;;;;5029449;28;8792;-66
2023/04/28 16:26:46;;;;;;;;;8.25;5.75;;;;;;;;5028809;28;9678;-69
2023/04/28 16:29:12;;;;;;;;;9.50;7.25;;;;;;;;5028067;28;9981;-70
2023/04/28 16:31:37;;;;;;;;;9.00;6.50;;;;;;;;5023414;28;8897;-66
2023/04/28 16:34:02;;;;;;;;;3.50;3.00;;;;;;;;5027470;28;8924;-67
2023/04/28 16:36:31;;;;;;;;;2.75;2.75;;;;;;;;5026159;28;8831;-66
2023/04/28 16:38:57;;;;;;;;;6.00;3.00;;;;;;;;5026200;28;8885;-68
2023/04/28 16:41:22;;;;;;;;;3.75;3.00;;;;;;;;5023630;28;9744;-68
2023/04/28 16:43:47;;;;;;;;;8.00;4.75;;;;;;;;5027895;28;8827;-67
2023/04/28 16:46:13;;;;;;;;;17.75;14.75;;;;;;;;5027846;28;9976;-67
2023/04/28 16:48:38;;;;;;;;;5.25;3.25;;;;;;;;5033048;28;8897;-68
2023/04/28 16:51:07;;;;;;;;;4.00;3.00;;;;;;;;5033862;28;8784;-70
2023/04/28 16:53:32;;;;;;;;;5.50;5.50;;;;;;;;5031235;28;8943;-72
2023/04/28 16:55:57;;;;;;;;;4.50;4.25;;;;;;;;5033847;28;9821;-77
2023/04/28 16:58:23;;;;;;;;;4.00;4.00;;;;;;;;5033474;28;8838;-69
2023/04/28 17:00:49;;;;;;;;;3.50;3.50;;;;;;;;5033775;28;8815;-67
2023/04/28 17:03:14;;;;;;;;;6.50;6.50;;;;;;;;5030695;28;9751;-73
2023/04/28 17:05:40;;;;;;;;;4.00;4.00;;;;;;;;5033291;28;8827;-72
2023/04/28 17:08:05;;;;;;;;;4.25;3.00;;;;;;;;5032572;28;8950;-76
2023/04/28 17:10:31;;;;;;;;;3.00;2.25;;;;;;;;5033252;28;8859;-73
2023/04/28 17:12:56;;;;;;;;;3.25;1.50;;;;;;;;5030929;28;8812;-78
2023/04/28 17:15:21;;;;;;;;;4.00;2.50;;;;;;;;5033719;28;8823;-73
2023/04/28 17:17:48;;;;;;;;;3.00;3.00;;;;;;;;5033112;28;8824;-73
2023/04/28 17:20:18;;;;;;;;;4.75;3.00;;;;;;;;5032001;28;8832;-79
2023/04/28 17:22:44;;;;;;;;;4.50;3.00;;;;;;;;5030701;28;9999;-74
2023/04/28 17:25:10;;;;;;;;;3.00;3.00;;;;;;;;5033115;28;10079;-72
2023/04/28 17:27:36;;;;;;;;;3.00;3.00;;;;;;;;5033282;28;9592;-74
2023/04/28 17:30:03;;;;;;;;;2.25;2.25;;;;;;;;5033088;28;10119;-73
2023/04/28 17:32:35;;;;;;;;;3.25;2.75;;;;;;;;5029942;28;8852;-71
2023/04/28 17:35:04;;;;;;;;;4.25;3.75;;;;;;;;5032789;28;10974;-77
2023/04/28 17:37:33;;;;;;;;;4.75;4.00;;;;;;;;5033080;28;10173;-74
2023/04/28 17:39:59;;;;;;;;;3.50;3.50;;;;;;;;5032855;28;10290;-72
2023/04/28 17:42:27;;;;;;;;;3.00;3.00;;;;;;;;5030145;28;10201;-79
2023/04/28 17:44:52;;;;;;;;;4.00;4.00;;;;;;;;5032696;28;10252;-74
2023/04/28 17:47:17;;;;;;;;;7.00;5.00;;;;;;;;5032345;28;10390;-75
2023/04/28 17:49:43;;;;;;;;;3.50;2.50;;;;;;;;5032779;28;8823;-74
2023/04/28 17:52:08;;;;;;;;;3.00;3.00;;;;;;;;5031236;28;8956;-71
2023/04/28 17:54:34;;;;;;;;;3.75;3.75;;;;;;;;5032569;28;8896;-74
2023/04/28 17:57:01;;;;;;;;;3.75;2.50;;;;;;;;5032323;28;9820;-72
2023/04/28 17:59:26;;;;;;;;;3.00;3.00;;;;;;;;5031288;28;8838;-77
2023/04/28 18:01:54;;;;;;;;;2.00;2.00;;;;;;;;5028292;28;10602;-76
2023/04/28 18:04:20;;;;;;;;;4.00;4.00;;;;;;;;5029289;28;8826;-75
2023/04/28 18:06:45;;;;;;;;;4.75;3.00;;;;;;;;5019935;28;10521;-75
2023/04/28 18:09:10;;;;;;;;;3.75;3.00;;;;;;;;5022354;28;8897;-75
2023/04/28 18:11:36;;;;;;;;;5.00;3.00;;;;;;;;5023347;28;8957;-74
2023/04/28 18:14:01;;;;;;;;;2.75;2.75;;;;;;;;5020866;28;8814;-74
2023/04/28 18:16:26;;;;;;;;;4.00;4.00;;;;;;;;5021036;28;8846;-75
2023/04/28 18:18:52;;;;;;;;;5.50;4.25;;;;;;;;5021617;28;8807;-75
2023/04/28 18:21:20;;;;;;;;;6.75;4.75;;;;;;;;5023605;28;8830;-75
2023/04/28 18:23:46;;;;;;;;;4.00;4.00;;;;;;;;5018211;28;8818;-72
2023/04/28 18:26:11;;;;;;;;;3.25;3.25;;;;;;;;5031812;28;10356;-72
2023/04/28 18:28:40;;;;;;;;;2.25;2.25;;;;;;;;5032037;28;8792;-76
2023/04/28 18:31:11;;;;;;;;;3.75;3.00;;;;;;;;5031186;28;8859;-72
2023/04/28 18:33:36;;;;;;;;;4.00;4.00;;;;;;;;5029087;28;10377;-74
2023/04/28 18:36:06;;;;;;;;;8.50;5.00;;;;;;;;5031813;28;10279;-72
2023/04/28 18:38:33;;;;;;;;;4.00;3.00;;;;;;;;5031613;28;9818;-70
2023/04/28 18:41:00;;;;;;;;;5.00;3.00;;;;;;;;5026895;28;11135;-73
2023/04/28 18:43:27;;;;;;;;;3.00;2.00;;;;;;;;5015851;28;10575;-80
2023/04/28 18:45:52;;;;;;;;;5.25;2.75;;;;;;;;5031421;28;10445;-75
2023/04/28 18:48:18;;;;;;;;;4.00;3.00;;;;;;;;5031222;28;10659;-79
2023/04/28 18:50:52;;;;;;;;;4.00;4.00;;;;;;;;5031532;28;9554;-69
2023/04/28 18:53:17;;;;;;;;;3.50;3.50;;;;;;;;5027495;28;9622;-76
2023/04/28 18:55:43;;;;;;;;;7.25;4.00;;;;;;;;5031389;28;10535;-79
2023/04/28 18:58:09;;;;;;;;;6.00;4.00;;;;;;;;5031282;28;8819;-79
2023/04/28 19:00:34;;;;;;;;;4.50;4.50;;;;;;;;5031300;28;9527;-77
2023/04/28 19:03:00;;;;;;;;;15.00;11.00;;;;;;;;5043671;28;8949;-78
2023/04/28 19:05:25;;;;;;;;;14.50;13.50;;;;;;;;5031063;28;8816;-78
2023/04/28 19:07:52;;;;;;;;;13.00;11.25;;;;;;;;5029408;28;8819;-77
2023/04/28 19:10:25;;;;;;;;;8.75;8.75;;;;;;;;5025605;28;8949;-80
2023/04/28 19:12:54;;;;;;;;;8.00;4.75;;;;;;;;5010978;28;11041;-78
2023/04/28 19:15:19;;;;;;;;;9.00;8.00;;;;;;;;5011138;28;10712;-77
2023/04/28 19:17:45;;;;;;;;;9.00;7.75;;;;;;;;5025961;28;10818;-77
2023/04/28 19:20:12;;;;;;;;;13.00;9.00;;;;;;;;5011108;28;8794;-78
2023/04/28 19:22:39;;;;;;;;;9.25;7.50;;;;;;;;5026793;28;8884;-70
2023/04/28 19:25:05;;;;;;;;;6.00;4.75;;;;;;;;5011029;28;10677;-71
2023/04/28 19:27:36;;;;;;;;;5.25;4.25;;;;;;;;5011871;28;10618;-75
2023/04/28 19:30:05;;;;;;;;;13.00;10.25;;;;;;;;5016558;28;10578;-78
2023/04/28 19:32:30;;;;;;;;;4.00;3.00;;;;;;;;5022120;23;11104;-75
2023/04/28 19:34:56;;;;;;;;;6.75;6.75;;;;;;;;4986647;28;10625;-79
2023/04/28 19:37:22;;;;;;;;;6.25;5.25;;;;;;;;4990001;28;8825;-71
2023/04/28 19:39:49;;;;;;;;;7.50;7.50;;;;;;;;4989244;28;8857;-72
2023/04/28 19:42:14;;;;;;;;;7.75;7.00;;;;;;;;4989581;28;8825;-73
2023/04/28 19:44:40;;;;;;;;;7.75;3.75;;;;;;;;4989772;28;10831;-76
2023/04/28 19:47:06;;;;;;;;;9.25;6.25;;;;;;;;4989557;28;8849;-77
2023/04/28 19:49:32;;;;;;;;;7.50;7.25;;;;;;;;4989705;28;8812;-80
2023/04/28 19:51:57;;;;;;;;;6.00;4.00;;;;;;;;4989659;28;11403;-75
2023/04/28 19:54:22;;;;;;;;;4.00;4.00;;;;;;;;4989689;28;8785;-74
2023/04/28 19:56:48;;;;;;;;;5.75;3.75;;;;;;;;4989030;28;8847;-74
2023/04/28 19:59:13;;;;;;;;;4.50;4.00;;;;;;;;4989889;28;8849;-75
2023/04/28 20:01:41;;;;;;;;;5.75;4.00;;;;;;;;4989533;28;9680;-77
2023/04/28 20:04:06;;;;;;;;;4.75;4.75;;;;;;;;4989696;28;9064;-75
2023/04/28 20:06:32;;;;;;;;;5.75;4.75;;;;;;;;4980599;28;11544;-73
2023/04/28 20:08:57;;;;;;;;;4.50;3.75;;;;;;;;4970251;28;8811;-77
2023/04/28 20:11:23;;;;;;;;;5.50;4.00;;;;;;;;4989234;28;8792;-76
2023/04/28 20:13:49;;;;;;;;;4.00;4.00;;;;;;;;4989266;28;8789;-76
2023/04/28 20:16:15;;;;;;;;;7.75;3.50;;;;;;;;4970262;28;10754;-75
2023/04/28 20:18:40;;;;;;;;;11.50;9.00;;;;;;;;4989221;28;8813;-74
2023/04/28 20:21:09;;;;;;;;;9.00;8.50;;;;;;;;4988751;28;8958;-75
2023/04/28 20:23:35;;;;;;;;;4.00;4.00;;;;;;;;4989081;28;8809;-75
2023/04/28 20:26:00;;;;;;;;;6.00;4.00;;;;;;;;4983400;28;11046;-75
2023/04/28 20:28:26;;;;;;;;;4.50;4.50;;;;;;;;4988122;28;11138;-76
2023/04/28 20:30:52;;;;;;;;;3.00;3.00;;;;;;;;4986316;28;8809;-76
2023/04/28 20:33:17;;;;;;;;;7.00;6.00;;;;;;;;4969669;28;8811;-76
2023/04/28 20:35:43;;;;;;;;;4.50;4.00;;;;;;;;4969391;28;11418;-75
2023/04/28 20:38:08;;;;;;;;;2.75;2.00;;;;;;;;4969879;28;8837;-76
2023/04/28 20:40:35;;;;;;;;;7.00;4.00;;;;;;;;4979757;28;8831;-76
2023/04/28 20:43:02;;;;;;;;;4.25;4.25;;;;;;;;4981485;28;9591;-75
2023/04/28 20:45:29;;;;;;;;;4.50;4.50;;;;;;;;4960254;28;10848;-75
2023/04/28 20:47:54;;;;;;;;;6.75;6.00;;;;;;;;4974562;28;11206;-75
2023/04/28 20:50:19;;;;;;;;;7.00;4.00;;;;;;;;4969259;28;11755;-76
2023/04/28 20:52:45;;;;;;;;;4.00;4.00;;;;;;;;4975613;28;8952;-76
2023/04/28 20:55:10;;;;;;;;;6.75;6.75;;;;;;;;4988512;28;8936;-76
2023/04/28 20:57:36;;;;;;;;;7.25;6.00;;;;;;;;4988529;28;8856;-76
2023/04/28 21:00:02;;;;;;;;;6.00;3.25;;;;;;;;4988578;28;8812;-76
2023/04/28 21:02:27;;;;;;;;;4.00;4.00;;;;;;;;4988765;28;8836;-76
2023/04/28 21:04:53;;;;;;;;;5.00;4.00;;;;;;;;4988746;28;10864;-75
2023/04/28 21:07:18;;;;;;;;;5.50;4.00;;;;;;;;4987293;28;8968;-75
2023/04/28 21:09:43;;;;;;;;;5.00;5.00;;;;;;;;4988471;28;9084;-74
2023/04/28 21:12:09;;;;;;;;;8.25;7.00;;;;;;;;4988316;28;8801;-78
2023/04/28 21:14:37;;;;;;;;;6.00;6.00;;;;;;;;4988375;28;8915;-78
2023/04/28 21:17:02;;;;;;;;;7.00;6.25;;;;;;;;4979946;28;8823;-78
2023/04/28 21:19:28;;;;;;;;;6.25;5.50;;;;;;;;4977818;28;11229;-78
2023/04/28 21:21:53;;;;;;;;;6.00;6.00;;;;;;;;4979484;28;8840;-78
2023/04/28 21:24:19;;;;;;;;;6.50;5.00;;;;;;;;4974222;28;8830;-78
2023/04/28 21:26:45;;;;;;;;;5.00;5.00;;;;;;;;4969251;28;8835;-79
2023/04/28 21:29:10;;;;;;;;;8.25;7.00;;;;;;;;4951551;28;8803;-77
2023/04/28 21:31:36;;;;;;;;;7.75;7.75;;;;;;;;4969074;28;9523;-78
2023/04/28 21:34:01;;;;;;;;;6.50;6.50;;;;;;;;4971023;28;8831;-78
2023/04/28 21:36:27;;;;;;;;;6.75;6.00;;;;;;;;4972512;28;8925;-76
2023/04/28 21:38:52;;;;;;;;;5.75;4.50;;;;;;;;4985685;28;8860;-77
2023/04/28 21:41:17;;;;;;;;;8.25;8.25;;;;;;;;4991987;28;8808;-77
2023/04/28 21:43:43;;;;;;;;;10.25;6.00;;;;;;;;4992030;28;8833;-77
2023/04/28 21:46:08;;;;;;;;;7.00;7.00;;;;;;;;4991980;28;9622;-78
2023/04/28 21:48:34;;;;;;;;;7.75;6.00;;;;;;;;4974410;28;8836;-76
2023/04/28 21:51:00;;;;;;;;;6.00;5.00;;;;;;;;4991850;28;8801;-78
2023/04/28 21:53:25;;;;;;;;;7.50;7.50;;;;;;;;4991599;28;8816;-78
2023/04/28 21:55:50;;;;;;;;;6.50;6.50;;;;;;;;4991938;28;8982;-77
2023/04/28 21:58:16;;;;;;;;;6.00;6.00;;;;;;;;4991549;28;8894;-77
2023/04/28 22:00:42;;;;;;;;;6.75;6.00;;;;;;;;4991779;28;8923;-77
2023/04/28 22:03:08;;;;;;;;;8.00;7.00;;;;;;;;4991888;28;8797;-77
2023/04/28 22:05:33;;;;;;;;;10.00;7.00;;;;;;;;4991407;28;10953;-77
2023/04/28 22:07:59;;;;;;;;;5.25;4.75;;;;;;;;4991567;28;8813;-77
2023/04/28 22:10:25;;;;;;;;;7.00;7.00;;;;;;;;4973865;28;8832;-77
2023/04/28 22:12:50;;;;;;;;;10.75;9.75;;;;;;;;4991420;28;11056;-76
2023/04/28 22:15:16;;;;;;;;;8.00;8.00;;;;;;;;4991584;28;8829;-76
2023/04/28 22:17:42;;;;;;;;;6.75;5.75;;;;;;;;4991535;28;8780;-76
2023/04/28 22:20:07;;;;;;;;;7.00;7.00;;;;;;;;4991260;28;8847;-76
2023/04/28 22:22:33;;;;;;;;;9.75;8.50;;;;;;;;4991043;28;12094;-76
2023/04/28 22:24:58;;;;;;;;;9.75;9.75;;;;;;;;4991184;28;8824;-75
2023/04/28 22:27:24;;;;;;;;;7.50;7.00;;;;;;;;4990966;28;8833;-76
2023/04/28 22:29:49;;;;;;;;;5.25;5.25;;;;;;;;4991089;28;8819;-76
2023/04/28 22:32:14;;;;;;;;;6.75;6.00;;;;;;;;4991286;28;8805;-76
2023/04/28 22:34:40;;;;;;;;;9.75;6.75;;;;;;;;4991113;28;8793;-77
2023/04/28 22:37:05;;;;;;;;;3.00;3.00;;;;;;;;4991091;28;8801;-77
2023/04/28 22:39:31;;;;;;;;;6.25;6.25;;;;;;;;4991249;28;8782;-77
2023/04/28 22:41:56;;;;;;;;;8.50;6.25;;;;;;;;4991168;28;9572;-77
2023/04/28 22:44:22;;;;;;;;;6.00;6.00;;;;;;;;4991161;28;8785;-77
2023/04/28 22:46:47;;;;;;;;;7.00;5.50;;;;;;;;4991157;28;8994;-77
2023/04/28 22:49:12;;;;;;;;;5.00;5.00;;;;;;;;4991044;28;9529;-77
2023/04/28 22:51:37;;;;;;;;;6.25;6.25;;;;;;;;4990804;28;8785;-77
2023/04/28 22:54:03;;;;;;;;;6.50;6.50;;;;;;;;4990972;28;8888;-77
2023/04/28 22:56:28;;;;;;;;;6.00;6.00;;;;;;;;4990799;28;8972;-76
2023/04/28 22:58:53;;;;;;;;;10.25;7.50;;;;;;;;4990485;28;8809;-77
2023/04/28 23:01:19;;;;;;;;;6.00;4.50;;;;;;;;4990642;28;8928;-76
2023/04/28 23:03:44;;;;;;;;;10.00;7.00;;;;;;;;4990733;28;8894;-77
2023/04/28 23:06:10;;;;;;;;;6.50;6.25;;;;;;;;4990502;28;8839;-76
2023/04/28 23:08:35;;;;;;;;;6.75;5.00;;;;;;;;4990797;28;8797;-78
2023/04/28 23:11:01;;;;;;;;;5.00;5.00;;;;;;;;4990382;28;8809;-79
2023/04/28 23:13:26;;;;;;;;;5.50;5.50;;;;;;;;4990647;28;8825;-78
2023/04/28 23:15:51;;;;;;;;;6.00;4.50;;;;;;;;4990745;28;8894;-77